createdAt,value
2022-10-28T00:01:19.678Z,101458.50
2022-10-28T00:03:50.999Z,101467.63
2022-10-28T00:06:32.338Z,101455.94
2022-10-28T00:08:59.882Z,101457.94
2022-10-28T00:11:29.490Z,101451.00
2022-10-28T00:13:58.023Z,101459.41
2022-10-28T00:16:32.130Z,101451.72
2022-10-28T00:19:00.061Z,101438.84
2022-10-28T00:21:29.887Z,101447.94
2022-10-28T00:23:57.214Z,101444.25
2022-10-28T00:26:27.342Z,101445.28
2022-10-28T00:29:00.446Z,101447.16
2022-10-28T00:31:31.465Z,101449.09
2022-10-28T00:33:59.723Z,101449.22
2022-10-28T00:36:34.054Z,101447.72
2022-10-28T00:39:01.899Z,101445.47
2022-10-28T00:41:35.759Z,101446.13
2022-10-28T00:44:23.662Z,101440.25
2022-10-28T00:46:53.281Z,101436.06
2022-10-28T00:49:28.763Z,101430.09
2022-10-28T00:52:00.278Z,101420.88
2022-10-28T00:54:27.260Z,101430.09
2022-10-28T00:57:04.846Z,101417.78
2022-10-28T00:59:37.834Z,101428.03
2022-10-28T01:02:06.555Z,101422.50
2022-10-28T01:04:33.075Z,101419.13
2022-10-28T01:07:01.706Z,101425.94
2022-10-28T01:09:28.124Z,101420.09
2022-10-28T01:12:09.662Z,101421.28
2022-10-28T01:14:41.912Z,101427.47
2022-10-28T01:17:11.156Z,101418.06
2022-10-28T01:19:52.627Z,101419.06
2022-10-28T01:22:33.942Z,101415.75
2022-10-28T01:25:18.275Z,101413.94
2022-10-28T01:28:06.704Z,101412.09
2022-10-28T01:30:56.352Z,101411.19
2022-10-28T01:33:36.730Z,101417.78
2022-10-28T01:36:18.982Z,101407.19
2022-10-28T01:38:51.627Z,101414.00
2022-10-28T01:41:30.690Z,101421.75
2022-10-28T01:44:04.141Z,101417.56
2022-10-28T01:46:50.494Z,101419.03
2022-10-28T01:49:20.746Z,101405.34
2022-10-28T01:51:51.012Z,101403.84
2022-10-28T01:54:20.679Z,101407.09
2022-10-28T01:56:48.704Z,101393.69
2022-10-28T01:59:22.462Z,101400.94
2022-10-28T02:01:48.972Z,101389.03
2022-10-28T02:04:15.545Z,101384.41
2022-10-28T02:06:46.168Z,101390.53
2022-10-28T02:09:24.504Z,101388.59
2022-10-28T02:12:06.216Z,101385.09
2022-10-28T02:15:17.514Z,101392.03
2022-10-28T02:18:05.896Z,101396.94
2022-10-28T02:20:53.471Z,101393.78
2022-10-28T02:23:45.808Z,101383.78
2022-10-28T02:26:22.405Z,101389.50
2022-10-28T02:29:14.703Z,101388.44
2022-10-28T02:31:58.528Z,101391.69
2022-10-28T02:34:30.931Z,101400.88
2022-10-28T02:37:02.433Z,101403.44
2022-10-28T02:39:38.313Z,101397.19
2022-10-28T02:42:12.506Z,101382.03
2022-10-28T02:44:45.967Z,101383.94
2022-10-28T02:47:19.385Z,101378.19
2022-10-28T02:49:50.928Z,101383.28
2022-10-28T02:52:26.024Z,101362.34
2022-10-28T02:54:58.203Z,101368.56
2022-10-28T02:57:41.606Z,101363.13
2022-10-28T03:00:11.484Z,101357.75
2022-10-28T03:02:39.829Z,101354.69
2022-10-28T03:05:07.307Z,101362.56
2022-10-28T03:07:34.089Z,101361.47
2022-10-28T03:10:00.514Z,101367.50
2022-10-28T03:12:26.950Z,101359.69
2022-10-28T03:14:53.421Z,101352.22
2022-10-28T03:17:19.847Z,101363.56
2022-10-28T03:19:46.567Z,101366.09
2022-10-28T03:22:13.161Z,101362.25
2022-10-28T03:24:39.817Z,101355.56
2022-10-28T03:27:06.423Z,101362.03
2022-10-28T03:29:33.054Z,101361.75
2022-10-28T03:31:59.680Z,101365.75
2022-10-28T03:34:26.244Z,101359.38
2022-10-28T03:36:53.003Z,101345.81
2022-10-28T03:39:19.649Z,101345.88
2022-10-28T03:41:46.379Z,101343.59
2022-10-28T03:44:12.891Z,101335.41
2022-10-28T03:46:39.392Z,101343.16
2022-10-28T03:49:06.047Z,101337.69
2022-10-28T03:51:32.563Z,101333.00
2022-10-28T03:53:59.249Z,101332.28
2022-10-28T03:56:25.801Z,101339.88
2022-10-28T04:01:18.930Z,101333.28
2022-10-28T04:03:45.544Z,101324.94
2022-10-28T04:06:12.062Z,101323.78
2022-10-28T04:08:39.250Z,101325.44
2022-10-28T04:11:06.117Z,101330.66
2022-10-28T04:13:32.696Z,101327.81
2022-10-28T04:15:59.339Z,101323.00
2022-10-28T04:18:26.020Z,101333.41
2022-10-28T04:20:52.651Z,101333.81
2022-10-28T04:23:22.117Z,101341.06
2022-10-28T04:25:53.166Z,101342.28
2022-10-28T04:28:25.395Z,101341.06
2022-10-28T04:30:52.112Z,101342.28
2022-10-28T04:33:22.570Z,101338.31
2022-10-28T04:35:49.194Z,101341.53
2022-10-28T04:38:15.693Z,101338.84
2022-10-28T04:40:42.379Z,101327.69
2022-10-28T04:43:10.193Z,101335.78
2022-10-28T04:45:37.418Z,101338.22
2022-10-28T04:48:04.086Z,101343.06
2022-10-28T04:50:30.902Z,101341.53
2022-10-28T04:52:57.351Z,101342.84
2022-10-28T04:55:23.831Z,101341.31
2022-10-28T04:57:57.629Z,101347.03
2022-10-28T05:00:30.050Z,101343.94
2022-10-28T05:02:57.182Z,101345.53
2022-10-28T05:05:23.835Z,101344.81
2022-10-28T05:07:50.328Z,101349.25
2022-10-28T05:10:17.980Z,101359.69
2022-10-28T05:12:45.954Z,101361.75
2022-10-28T05:15:13.772Z,101359.38
2022-10-28T05:17:48.816Z,101353.81
2022-10-28T05:20:17.503Z,101350.22
2022-10-28T05:22:55.794Z,101346.69
2022-10-28T05:25:23.083Z,101346.75
2022-10-28T05:27:49.876Z,101354.03
2022-10-28T05:30:16.648Z,101359.28
2022-10-28T05:32:43.943Z,101348.53
2022-10-28T05:35:10.918Z,101344.22
2022-10-28T05:37:37.668Z,101347.38
2022-10-28T05:40:04.744Z,101344.63
2022-10-28T05:42:31.237Z,101357.38
2022-10-28T05:44:57.672Z,101355.03
2022-10-28T05:47:24.111Z,101357.44
2022-10-28T05:49:50.550Z,101360.66
2022-10-28T05:52:17.026Z,101356.63
2022-10-28T05:54:43.472Z,101353.44
2022-10-28T05:57:09.918Z,101343.91
2022-10-28T05:59:36.324Z,101359.91
2022-10-28T06:02:03.268Z,101357.22
2022-10-28T06:04:31.004Z,101350.41
2022-10-28T06:06:57.380Z,101357.53
2022-10-28T06:09:23.855Z,101354.75
2022-10-28T06:11:48.751Z,101353.91
2022-10-28T06:14:15.164Z,101353.09
2022-10-28T06:16:42.281Z,101354.69
2022-10-28T06:19:08.742Z,101354.69
2022-10-28T06:21:35.150Z,101355.47
2022-10-28T06:24:01.646Z,101362.63
2022-10-28T06:26:28.078Z,101360.25
2022-10-28T06:28:54.565Z,101347.94
2022-10-28T06:31:20.995Z,101355.06
2022-10-28T06:33:47.427Z,101361.88
2022-10-28T06:36:13.856Z,101359.06
2022-10-28T06:38:40.445Z,101360.66
2022-10-28T06:41:06.860Z,101355.75
2022-10-28T06:43:33.356Z,101366.13
2022-10-28T06:46:01.600Z,101364.91
2022-10-28T06:48:29.713Z,101370.88
2022-10-28T06:50:57.768Z,101365.22
2022-10-28T06:53:25.671Z,101366.00
2022-10-28T06:55:56.836Z,101363.13
2022-10-28T06:58:24.265Z,101366.66
2022-10-28T07:00:51.705Z,101373.81
2022-10-28T07:03:18.892Z,101382.50
2022-10-28T07:05:46.889Z,101383.88
2022-10-28T07:08:14.461Z,101377.38
2022-10-28T07:10:42.145Z,101379.50
2022-10-28T07:13:08.554Z,101383.88
2022-10-28T07:15:35.028Z,101388.94
2022-10-28T07:18:02.570Z,101393.97
2022-10-28T07:20:31.897Z,101389.66
2022-10-28T07:22:59.758Z,101394.38
2022-10-28T07:25:28.298Z,101403.69
2022-10-28T07:27:57.479Z,101399.53
2022-10-28T07:30:24.550Z,101411.66
2022-10-28T07:32:51.228Z,101404.81
2022-10-28T07:35:18.124Z,101411.13
2022-10-28T07:37:44.674Z,101415.09
2022-10-28T07:40:11.624Z,101418.31
2022-10-28T07:42:38.115Z,101411.06
2022-10-28T07:45:05.369Z,101419.53
2022-10-28T07:47:31.917Z,101419.16
2022-10-28T07:49:58.363Z,101406.66
2022-10-28T07:52:24.802Z,101414.00
2022-10-28T07:54:52.048Z,101400.28
2022-10-28T07:57:18.873Z,101401.00
2022-10-28T07:59:45.557Z,101403.97
2022-10-28T08:02:20.182Z,101410.53
2022-10-28T08:04:46.987Z,101409.06
2022-10-28T08:07:14.753Z,101404.78
2022-10-28T08:09:41.511Z,101411.66
2022-10-28T08:12:09.113Z,101408.75
2022-10-28T08:14:35.730Z,101401.34
2022-10-28T08:17:02.226Z,101408.63
2022-10-28T08:19:28.657Z,101415.72
2022-10-28T08:21:55.304Z,101416.38
2022-10-28T08:24:22.095Z,101414.81
2022-10-28T08:26:48.887Z,101416.28
2022-10-28T08:29:15.424Z,101416.97
2022-10-28T08:31:42.290Z,101424.59
2022-10-28T08:34:08.926Z,101424.16
2022-10-28T08:36:35.561Z,101415.84
2022-10-28T08:39:03.011Z,101420.13
2022-10-28T08:41:44.781Z,101415.16
2022-10-28T08:44:11.291Z,101412.06
2022-10-28T08:46:48.168Z,101401.00
2022-10-28T08:49:17.995Z,101408.53
2022-10-28T08:52:05.298Z,101397.34
2022-10-28T08:54:36.789Z,101404.63
2022-10-28T08:57:11.720Z,101399.75
2022-10-28T08:59:41.346Z,101393.41
2022-10-28T09:02:10.889Z,101391.34
2022-10-28T09:04:43.531Z,101379.38
2022-10-28T09:07:21.615Z,101390.97
2022-10-28T09:09:50.169Z,101389.47
2022-10-28T09:12:37.893Z,101390.66
2022-10-28T09:15:23.062Z,101392.84
2022-10-28T09:17:56.159Z,101399.81
2022-10-28T09:20:40.770Z,101381.09
2022-10-28T09:23:21.473Z,101383.34
2022-10-28T09:26:09.042Z,101383.41
2022-10-28T09:28:59.309Z,101380.97
2022-10-28T09:31:46.687Z,101390.38
2022-10-28T09:34:18.499Z,101394.06
2022-10-28T09:37:00.628Z,101388.09
2022-10-28T09:39:46.140Z,101390.81
2022-10-28T09:42:35.946Z,101382.78
2022-10-28T09:45:06.403Z,101385.63
2022-10-28T09:47:40.143Z,101385.63
2022-10-28T09:50:15.800Z,101387.63
2022-10-28T09:52:59.208Z,101383.66
2022-10-28T09:55:25.875Z,101391.31
2022-10-28T09:57:52.728Z,101393.31
2022-10-28T10:00:19.623Z,101389.09
2022-10-28T10:02:46.161Z,101393.31
2022-10-28T10:05:17.010Z,101389.53
2022-10-28T10:08:14.189Z,101395.97
2022-10-28T10:11:00.959Z,101402.91
2022-10-28T10:13:30.006Z,101418.78
2022-10-28T10:16:04.767Z,101406.81
2022-10-28T10:18:35.302Z,101409.81
2022-10-28T10:21:01.850Z,101417.94
2022-10-28T10:23:34.765Z,101404.34
2022-10-28T10:26:12.366Z,101404.44
2022-10-28T10:28:43.019Z,101404.44
2022-10-28T10:31:22.207Z,101399.59
2022-10-28T10:33:51.709Z,101402.31
2022-10-28T10:36:23.587Z,101405.88
2022-10-28T10:38:57.822Z,101396.66
2022-10-28T10:41:41.870Z,101403.41
2022-10-28T10:44:20.519Z,101394.06
2022-10-28T10:46:53.091Z,101394.50
2022-10-28T10:49:19.474Z,101391.59
2022-10-28T10:51:53.535Z,101395.44
2022-10-28T10:54:20.685Z,101391.59
2022-10-28T10:56:47.152Z,101389.66
2022-10-28T10:59:27.918Z,101379.28
2022-10-28T11:01:57.509Z,101394.69
2022-10-28T11:04:28.213Z,101389.03
2022-10-28T11:06:57.019Z,101383.75
2022-10-28T11:09:37.061Z,101377.53
2022-10-28T11:12:22.076Z,101373.63
2022-10-28T11:15:11.441Z,101370.06
2022-10-28T11:17:37.841Z,101364.72
2022-10-28T11:20:31.021Z,101366.34
2022-10-28T11:23:16.261Z,101357.75
2022-10-28T11:25:50.447Z,101356.97
2022-10-28T11:28:19.482Z,101349.38
2022-10-28T11:30:56.004Z,101352.97
2022-10-28T11:33:31.165Z,101352.66
2022-10-28T11:36:23.398Z,101354.63
2022-10-28T11:39:19.209Z,101352.00
2022-10-28T11:41:51.718Z,101341.06
2022-10-28T11:44:42.038Z,101351.28
2022-10-28T11:47:27.693Z,101340.44
2022-10-28T11:50:02.557Z,101340.00
2022-10-28T11:52:29.036Z,101344.19
2022-10-28T11:55:17.922Z,101340.03
2022-10-28T11:58:28.271Z,101327.13
2022-10-28T12:01:12.784Z,101328.19
2022-10-28T12:03:58.531Z,101327.78
2022-10-28T12:06:52.626Z,101325.09
2022-10-28T12:09:22.051Z,101314.97
2022-10-28T12:11:57.566Z,101319.53
2022-10-28T12:14:32.949Z,101311.41
2022-10-28T12:17:12.852Z,101309.78
2022-10-28T12:20:03.851Z,101310.53
2022-10-28T12:22:45.309Z,101309.06
2022-10-28T12:25:19.553Z,101309.06
2022-10-28T12:27:50.329Z,101298.31
2022-10-28T12:30:26.479Z,101292.91
2022-10-28T12:32:57.741Z,101294.22
2022-10-28T12:35:28.023Z,101289.25
2022-10-28T12:37:58.981Z,101285.25
2022-10-28T12:40:31.288Z,101275.28
2022-10-28T12:43:27.149Z,101279.97
2022-10-28T12:45:56.303Z,101274.78
2022-10-28T12:48:48.122Z,101275.00
2022-10-28T12:51:29.011Z,101266.66
2022-10-28T12:54:02.689Z,101268.50
2022-10-28T12:56:59.653Z,101268.25
2022-10-28T12:59:29.301Z,101266.19
2022-10-28T13:01:56.825Z,101270.88
2022-10-28T13:04:23.584Z,101272.69
2022-10-28T13:07:21.217Z,101264.88
2022-10-28T13:10:09.038Z,101263.53
2022-10-28T13:12:54.655Z,101272.56
2022-10-28T13:15:31.456Z,101277.13
2022-10-28T13:18:29.015Z,101278.28
2022-10-28T13:21:04.568Z,101275.03
2022-10-28T13:23:40.620Z,101274.06
2022-10-28T13:26:21.656Z,101284.25
2022-10-28T13:28:51.526Z,101285.69
2022-10-28T13:31:18.574Z,101289.84
2022-10-28T13:33:52.846Z,101293.72
2022-10-28T13:36:32.047Z,101291.72
2022-10-28T13:39:01.998Z,101296.31
2022-10-28T13:41:34.161Z,101301.72
2022-10-28T13:44:20.108Z,101299.78
2022-10-28T13:46:58.649Z,101304.97
2022-10-28T13:49:35.053Z,101296.44
2022-10-28T13:52:13.142Z,101296.25
2022-10-28T13:54:39.498Z,101303.97
2022-10-28T13:57:16.950Z,101291.91
2022-10-28T13:59:54.448Z,101305.22
2022-10-28T14:02:39.858Z,101307.69
2022-10-28T14:05:12.451Z,101312.47
2022-10-28T14:07:53.421Z,101309.69
2022-10-28T14:10:22.733Z,101310.63
2022-10-28T14:13:03.693Z,101307.75
2022-10-28T14:15:40.819Z,101312.88
2022-10-28T14:18:42.408Z,101319.72
2022-10-28T14:21:11.231Z,101331.03
2022-10-28T14:23:40.422Z,101331.47
2022-10-28T14:26:06.898Z,101321.31
2022-10-28T14:28:33.236Z,101327.38
2022-10-28T14:31:08.933Z,101305.44
2022-10-28T14:33:54.117Z,101321.72
2022-10-28T14:36:20.764Z,101324.69
2022-10-28T14:38:53.566Z,101345.66
2022-10-28T14:41:39.076Z,101347.53
2022-10-28T14:44:32.966Z,101341.94
2022-10-28T14:47:20.758Z,101344.75
2022-10-28T14:50:01.987Z,101356.53
2022-10-28T14:52:31.603Z,101355.41
2022-10-28T14:55:02.698Z,101356.97
2022-10-28T14:57:33.920Z,101358.72
2022-10-28T15:00:08.522Z,101353.94
2022-10-28T15:02:38.375Z,101379.84
2022-10-28T15:05:14.829Z,101375.63
2022-10-28T15:07:42.353Z,101365.19
2022-10-28T15:10:23.106Z,101369.34
2022-10-28T15:12:50.587Z,101375.72
2022-10-28T15:15:17.604Z,101372.47
2022-10-28T15:17:44.436Z,101367.97
2022-10-28T15:20:29.275Z,101375.59
2022-10-28T15:23:19.111Z,101380.06
2022-10-28T15:25:46.388Z,101386.69
2022-10-28T15:28:14.317Z,101391.66
2022-10-28T15:30:46.401Z,101410.84
2022-10-28T15:33:40.755Z,101415.66
2022-10-28T15:36:11.541Z,101415.41
2022-10-28T15:38:47.113Z,101410.94
2022-10-28T15:41:22.731Z,101408.84
2022-10-28T15:44:03.249Z,101409.50
2022-10-28T15:46:31.963Z,101405.81
2022-10-28T15:49:01.619Z,101405.75
2022-10-28T15:51:28.231Z,101405.28
2022-10-28T15:54:09.590Z,101423.41
2022-10-28T15:56:56.789Z,101418.34
2022-10-28T15:59:25.473Z,101419.78
2022-10-28T16:01:55.848Z,101416.06
2022-10-28T16:04:22.506Z,101417.31
2022-10-28T16:06:55.728Z,101417.19
2022-10-28T16:09:32.317Z,101414.34
2022-10-28T16:12:02.897Z,101429.09
2022-10-28T16:14:45.892Z,101435.25
2022-10-28T16:17:23.093Z,101434.13
2022-10-28T16:19:54.486Z,101440.56
2022-10-28T16:22:23.284Z,101438.03
2022-10-28T16:24:50.990Z,101450.63
2022-10-28T16:27:21.852Z,101459.69
2022-10-28T16:29:48.868Z,101452.97
2022-10-28T16:32:17.180Z,101457.50
2022-10-28T16:34:43.638Z,101464.91
2022-10-28T16:37:25.916Z,101471.97
2022-10-28T16:39:52.856Z,101470.84
2022-10-28T16:42:20.687Z,101469.56
2022-10-28T16:44:47.981Z,101467.22
2022-10-28T16:47:16.948Z,101474.91
2022-10-28T16:49:43.570Z,101472.38
2022-10-28T16:52:15.552Z,101478.03
2022-10-28T16:54:45.024Z,101476.28
2022-10-28T16:57:11.455Z,101488.03
2022-10-28T16:59:37.920Z,101487.56
2022-10-28T17:02:13.574Z,101488.03
2022-10-28T17:04:40.115Z,101487.03
2022-10-28T17:07:07.101Z,101490.19
2022-10-28T17:09:33.505Z,101485.56
2022-10-28T17:12:00.296Z,101487.94
2022-10-28T17:14:26.691Z,101490.13
2022-10-28T17:16:53.079Z,101488.22
2022-10-28T17:19:19.468Z,101490.41
2022-10-28T17:21:45.878Z,101487.56
2022-10-28T17:24:12.273Z,101479.06
2022-10-28T17:26:38.726Z,101480.00
2022-10-28T17:29:05.194Z,101488.09
2022-10-28T17:31:31.625Z,101505.91
2022-10-28T17:33:58.305Z,101501.00
2022-10-28T17:36:24.851Z,101519.84
2022-10-28T17:38:51.287Z,101516.63
2022-10-28T17:41:17.791Z,101521.88
2022-10-28T17:43:44.225Z,101532.34
2022-10-28T17:46:10.671Z,101541.25
2022-10-28T17:48:37.122Z,101538.59
2022-10-28T17:51:03.674Z,101539.97
2022-10-28T17:53:30.106Z,101534.47
2022-10-28T17:55:57.358Z,101517.00
2022-10-28T17:58:24.193Z,101527.63
2022-10-28T18:00:57.160Z,101539.16
2022-10-28T18:03:23.751Z,101535.78
2022-10-28T18:05:51.285Z,101534.91
2022-10-28T18:08:17.986Z,101531.06
2022-10-28T18:10:55.217Z,101530.63
2022-10-28T18:13:31.544Z,101540.44
2022-10-28T18:16:12.921Z,101539.41
2022-10-28T18:18:42.412Z,101544.50
2022-10-28T18:21:11.123Z,101545.97
2022-10-28T18:23:38.254Z,101556.34
2022-10-28T18:26:15.109Z,101549.47
2022-10-28T18:28:43.127Z,101539.19
2022-10-28T18:31:11.535Z,101542.22
2022-10-28T18:33:38.849Z,101547.94
2022-10-28T18:36:07.754Z,101543.53
2022-10-28T18:38:45.731Z,101553.06
2022-10-28T18:41:14.031Z,101559.25
2022-10-28T18:43:41.370Z,101562.50
2022-10-28T18:46:08.285Z,101566.66
2022-10-28T18:48:35.267Z,101565.16
2022-10-28T18:51:06.719Z,101574.16
2022-10-28T18:53:56.777Z,101580.75
2022-10-28T18:56:25.860Z,101586.81
2022-10-28T18:59:03.584Z,101592.19
2022-10-28T19:01:31.799Z,101590.19
2022-10-28T19:04:02.836Z,101585.44
2022-10-28T19:06:32.554Z,101588.78
2022-10-28T19:09:04.458Z,101594.16
2022-10-28T19:11:32.662Z,101595.03
2022-10-28T19:14:04.165Z,101596.81
2022-10-28T19:16:33.179Z,101594.94
2022-10-28T19:19:03.671Z,101605.84
2022-10-28T19:21:30.680Z,101604.44
2022-10-28T19:23:57.337Z,101609.38
2022-10-28T19:26:23.956Z,101615.84
2022-10-28T19:28:51.643Z,101613.59
2022-10-28T19:31:23.922Z,101613.06
2022-10-28T19:33:52.436Z,101615.06
2022-10-28T19:36:24.621Z,101610.78
2022-10-28T19:38:53.661Z,101613.22
2022-10-28T19:41:22.729Z,101609.28
2022-10-28T19:43:56.887Z,101617.44
2022-10-28T19:46:28.826Z,101617.88
2022-10-28T19:48:57.984Z,101623.91
2022-10-28T19:51:27.384Z,101627.59
2022-10-28T19:53:56.343Z,101620.84
2022-10-28T19:56:23.314Z,101635.31
2022-10-28T19:58:58.368Z,101642.97
2022-10-28T20:01:29.435Z,101641.03
2022-10-28T20:03:56.720Z,101644.59
2022-10-28T20:06:26.020Z,101633.03
2022-10-28T20:08:52.539Z,101640.22
2022-10-28T20:11:26.326Z,101638.66
2022-10-28T20:14:01.966Z,101649.88
2022-10-28T20:16:29.046Z,101653.88
2022-10-28T20:18:57.677Z,101649.88
2022-10-28T20:21:26.719Z,101647.50
2022-10-28T20:23:55.612Z,101655.50
2022-10-28T20:26:30.222Z,101656.25
2022-10-28T20:28:58.168Z,101654.63
2022-10-28T20:31:30.183Z,101663.38
2022-10-28T20:34:03.474Z,101661.81
2022-10-28T20:36:35.524Z,101654.63
2022-10-28T20:39:16.599Z,101656.63
2022-10-28T20:41:46.003Z,101658.63
2022-10-28T20:44:12.797Z,101661.53
2022-10-28T20:46:39.728Z,101672.38
2022-10-28T20:49:08.831Z,101679.41
2022-10-28T20:51:36.275Z,101689.91
2022-10-28T20:54:03.094Z,101684.31
2022-10-28T20:56:33.227Z,101696.06
2022-10-28T20:59:00.599Z,101696.50
2022-10-28T21:01:30.184Z,101694.13
2022-10-28T21:04:02.613Z,101690.63
2022-10-28T21:06:30.398Z,101693.41
2022-10-28T21:08:58.186Z,101689.88
2022-10-28T21:11:26.323Z,101697.22
2022-10-28T21:13:55.376Z,101700.53
2022-10-28T21:16:23.079Z,101708.66
2022-10-28T21:18:50.206Z,101716.34
2022-10-28T21:21:17.979Z,101706.41
2022-10-28T21:23:44.900Z,101704.84
2022-10-28T21:26:12.809Z,101702.47
2022-10-28T21:28:42.568Z,101702.53
2022-10-28T21:31:12.108Z,101698.63
2022-10-28T21:33:38.942Z,101707.13
2022-10-28T21:36:09.317Z,101707.16
2022-10-28T21:38:36.126Z,101713.19
2022-10-28T21:41:09.564Z,101721.25
2022-10-28T21:43:37.964Z,101717.66
2022-10-28T21:46:05.618Z,101725.28
2022-10-28T21:48:33.644Z,101728.09
2022-10-28T21:51:02.530Z,101726.16
2022-10-28T21:53:32.630Z,101717.34
2022-10-28T21:56:03.851Z,101721.88
2022-10-28T21:58:30.736Z,101723.38
2022-10-28T22:01:11.890Z,101736.94
2022-10-28T22:03:38.783Z,101727.00
2022-10-28T22:06:05.637Z,101736.84
2022-10-28T22:08:32.330Z,101725.22
2022-10-28T22:11:11.480Z,101723.56
2022-10-28T22:13:37.944Z,101717.19
2022-10-28T22:16:13.742Z,101708.06
2022-10-28T22:18:40.237Z,101725.59
2022-10-28T22:21:15.806Z,101718.81
2022-10-28T22:23:42.854Z,101728.44
2022-10-28T22:26:12.168Z,101721.69
2022-10-28T22:28:38.924Z,101730.09
2022-10-28T22:31:08.278Z,101731.66
2022-10-28T22:33:35.345Z,101728.88
2022-10-28T22:36:13.669Z,101742.03
2022-10-28T22:38:41.058Z,101742.03
2022-10-28T22:41:20.359Z,101734.84
2022-10-28T22:43:50.336Z,101738.06
2022-10-28T22:46:18.135Z,101734.84
2022-10-28T22:48:45.146Z,101735.63
2022-10-28T22:51:12.566Z,101731.25
2022-10-28T22:53:39.759Z,101732.78
2022-10-28T22:56:08.057Z,101735.56
2022-10-28T22:58:34.927Z,101734.28
2022-10-28T23:01:20.454Z,101733.50
2022-10-28T23:03:48.898Z,101731.78
2022-10-28T23:06:18.172Z,101733.00
2022-10-28T23:08:45.088Z,101730.63
2022-10-28T23:11:12.806Z,101729.91
2022-10-28T23:13:39.677Z,101729.91
2022-10-28T23:16:08.435Z,101723.94
2022-10-28T23:18:35.237Z,101736.81
2022-10-28T23:21:11.556Z,101741.69
2022-10-28T23:23:38.712Z,101740.03
2022-10-28T23:26:05.769Z,101728.44
2022-10-28T23:28:32.435Z,101739.72
2022-10-28T23:31:03.910Z,101743.00
2022-10-28T23:33:31.613Z,101740.72
2022-10-28T23:35:59.405Z,101749.16
2022-10-28T23:38:26.220Z,101756.13
2022-10-28T23:40:59.931Z,101756.94
2022-10-28T23:43:28.066Z,101764.59
2022-10-28T23:45:55.118Z,101766.22
2022-10-28T23:48:22.132Z,101768.25
2022-10-28T23:50:49.068Z,101771.06
2022-10-28T23:53:15.603Z,101773.13
2022-10-28T23:55:44.343Z,101769.13
2022-10-28T23:58:14.697Z,101763.63
